createdAt,value
2019-05-05T00:00:21.693Z,14.63
2019-05-05T00:02:55.170Z,13.63
2019-05-05T00:05:32.801Z,13.90
2019-05-05T00:08:04.894Z,15.37
2019-05-05T00:10:35.681Z,14.17
2019-05-05T00:13:08.058Z,12.63
2019-05-05T00:15:45.008Z,14.37
2019-05-05T00:18:16.221Z,13.73
2019-05-05T00:20:51.075Z,14.97
2019-05-05T00:23:21.946Z,13.97
2019-05-05T00:25:52.826Z,13.90
2019-05-05T00:28:24.916Z,13.80
2019-05-05T00:30:56.595Z,13.47
2019-05-05T00:33:28.801Z,13.43
2019-05-05T00:35:58.147Z,13.50
2019-05-05T00:38:28.829Z,12.37
2019-05-05T00:40:59.812Z,12.40
2019-05-05T00:43:30.687Z,12.67
2019-05-05T00:46:02.107Z,13.33
2019-05-05T00:48:36.563Z,12.97
2019-05-05T00:51:07.606Z,13.23
2019-05-05T00:53:37.410Z,12.43
2019-05-05T00:56:09.459Z,13.13
2019-05-05T00:58:42.194Z,12.30
2019-05-05T01:01:24.925Z,11.50
2019-05-05T01:03:56.011Z,10.80
2019-05-05T01:06:28.345Z,10.90
2019-05-05T01:08:59.163Z,12.00
2019-05-05T01:11:29.469Z,11.40
2019-05-05T01:14:05.053Z,11.83
2019-05-05T01:16:36.256Z,10.97
2019-05-05T01:19:06.390Z,11.90
2019-05-05T01:21:38.051Z,10.30
2019-05-05T01:24:10.757Z,12.70
2019-05-05T01:26:40.643Z,11.13
2019-05-05T01:29:11.461Z,9.57
2019-05-05T01:31:41.362Z,9.10
2019-05-05T01:34:12.404Z,9.03
2019-05-05T01:36:45.815Z,9.20
2019-05-05T01:39:17.193Z,8.67
2019-05-05T01:41:49.758Z,9.53
2019-05-05T01:44:21.944Z,8.73
2019-05-05T01:46:51.772Z,8.90
2019-05-05T01:49:21.691Z,9.43
2019-05-05T01:51:50.884Z,9.50
2019-05-05T01:54:24.844Z,10.13
2019-05-05T01:56:57.139Z,10.13
2019-05-05T01:59:28.417Z,9.57
2019-05-05T02:01:58.529Z,10.40
2019-05-05T02:04:29.396Z,10.50
2019-05-05T02:07:00.572Z,10.97
2019-05-05T02:09:31.453Z,9.50
2019-05-05T02:12:05.237Z,10.30
2019-05-05T02:14:35.490Z,10.03
2019-05-05T02:17:06.521Z,9.40
2019-05-05T02:19:36.554Z,9.67
2019-05-05T02:22:06.903Z,8.33
2019-05-05T02:24:39.298Z,8.67
2019-05-05T02:27:10.457Z,9.03
2019-05-05T02:29:57.733Z,7.97
2019-05-05T02:32:36.338Z,9.07
2019-05-05T02:35:16.522Z,9.47
2019-05-05T02:37:48.167Z,8.97
2019-05-05T02:40:19.818Z,8.90
2019-05-05T02:42:50.956Z,8.50
2019-05-05T02:45:35.264Z,8.80
2019-05-05T02:48:06.959Z,8.73
2019-05-05T02:51:01.703Z,8.93
2019-05-05T02:53:30.996Z,10.27
2019-05-05T02:56:06.398Z,9.03
2019-05-05T02:58:40.464Z,10.80
2019-05-05T03:01:20.907Z,10.37
2019-05-05T03:03:54.247Z,10.10
2019-05-05T03:06:26.610Z,10.43
2019-05-05T03:08:58.196Z,11.17
2019-05-05T03:11:34.203Z,10.40
2019-05-05T03:14:07.469Z,10.63
2019-05-05T03:16:39.922Z,11.23
2019-05-05T03:19:14.237Z,11.87
2019-05-05T03:21:44.656Z,11.10
2019-05-05T03:24:16.993Z,11.10
2019-05-05T03:26:46.823Z,11.13
2019-05-05T03:29:18.937Z,10.40
2019-05-05T03:31:49.367Z,11.37
2019-05-05T03:34:23.981Z,10.80
2019-05-05T03:36:56.863Z,11.67
2019-05-05T03:39:29.259Z,11.70
2019-05-05T03:42:03.538Z,11.97
2019-05-05T03:44:35.495Z,11.30
2019-05-05T03:47:06.832Z,10.80
2019-05-05T03:49:37.843Z,10.23
2019-05-05T03:52:11.104Z,10.10
2019-05-05T03:54:41.177Z,10.83
2019-05-05T03:57:14.115Z,10.90
2019-05-05T03:59:48.728Z,10.10
2019-05-05T04:02:28.665Z,10.90
2019-05-05T04:05:05.840Z,10.80
2019-05-05T04:07:36.856Z,10.77
2019-05-05T04:10:09.289Z,10.83
2019-05-05T04:12:43.451Z,10.77
2019-05-05T04:15:14.219Z,10.70
2019-05-05T04:17:49.553Z,10.73
2019-05-05T04:20:21.137Z,11.27
2019-05-05T04:22:54.060Z,10.63
2019-05-05T04:25:24.706Z,10.27
2019-05-05T04:27:57.647Z,11.90
2019-05-05T04:30:29.856Z,12.00
2019-05-05T04:33:03.789Z,11.10
2019-05-05T04:35:34.781Z,11.60
2019-05-05T04:38:06.903Z,13.33
2019-05-05T04:43:29.352Z,12.43
2019-05-05T04:46:01.573Z,13.43
2019-05-05T04:48:43.960Z,13.63
2019-05-05T04:51:19.160Z,13.33
2019-05-05T04:54:09.728Z,15.20
2019-05-05T04:56:41.220Z,14.50
2019-05-05T04:59:14.281Z,13.13
2019-05-05T05:01:44.716Z,12.40
2019-05-05T05:04:33.704Z,12.13
2019-05-05T05:07:05.493Z,12.20
2019-05-05T05:09:35.454Z,12.80
2019-05-05T05:12:07.672Z,12.57
2019-05-05T05:14:37.486Z,12.00
2019-05-05T05:17:10.101Z,11.47
2019-05-05T05:19:41.058Z,11.20
2019-05-05T05:22:13.715Z,12.13
2019-05-05T05:24:44.811Z,11.33
2019-05-05T05:27:14.848Z,12.53
2019-05-05T05:29:46.215Z,11.20
2019-05-05T05:32:16.986Z,12.43
2019-05-05T05:34:47.984Z,11.90
2019-05-05T05:37:20.146Z,11.67
2019-05-05T05:40:07.375Z,12.40
2019-05-05T05:42:37.201Z,11.60
2019-05-05T05:45:20.279Z,11.03
2019-05-05T05:48:00.655Z,11.33
2019-05-05T05:50:41.257Z,11.83
2019-05-05T05:53:13.970Z,11.77
2019-05-05T05:55:48.105Z,9.80
2019-05-05T05:58:19.265Z,11.70
2019-05-05T06:00:53.945Z,9.53
2019-05-05T06:03:26.293Z,9.87
2019-05-05T06:05:56.265Z,9.57
2019-05-05T06:08:29.773Z,9.77
2019-05-05T06:10:58.514Z,9.50
2019-05-05T06:13:33.490Z,9.47
2019-05-05T06:16:05.574Z,8.53
2019-05-05T06:18:35.703Z,9.27
2019-05-05T06:21:06.298Z,9.77
2019-05-05T06:23:37.258Z,10.40
2019-05-05T06:26:14.908Z,9.90
2019-05-05T06:28:44.728Z,10.13
2019-05-05T06:31:19.716Z,11.10
2019-05-05T06:33:50.728Z,10.30
2019-05-05T06:36:20.624Z,10.53
2019-05-05T06:38:51.488Z,10.00
2019-05-05T06:41:26.262Z,10.13
2019-05-05T06:44:14.185Z,10.30
2019-05-05T06:46:45.141Z,10.33
2019-05-05T06:49:16.099Z,10.97
2019-05-05T06:51:47.401Z,10.60
2019-05-05T06:54:17.228Z,10.00
2019-05-05T06:56:47.650Z,9.83
2019-05-05T06:59:18.568Z,9.03
2019-05-05T07:01:49.508Z,9.40
2019-05-05T07:04:20.484Z,9.97
2019-05-05T07:06:54.779Z,10.33
2019-05-05T07:09:24.575Z,12.10
2019-05-05T07:11:59.500Z,12.33
2019-05-05T07:14:34.014Z,11.73
2019-05-05T07:17:05.176Z,10.33
2019-05-05T07:19:36.509Z,10.47
2019-05-05T07:22:08.618Z,10.20
2019-05-05T07:24:39.853Z,10.60
2019-05-05T07:27:10.736Z,11.83
2019-05-05T07:29:43.705Z,10.83
2019-05-05T07:32:15.705Z,10.73
2019-05-05T07:34:48.328Z,10.40
2019-05-05T07:37:19.266Z,10.30
2019-05-05T07:39:50.637Z,10.60
2019-05-05T07:42:24.293Z,10.97
2019-05-05T07:44:57.464Z,10.10
2019-05-05T07:47:31.210Z,10.53
2019-05-05T07:50:04.317Z,10.33
2019-05-05T07:52:34.484Z,10.13
2019-05-05T07:55:05.529Z,10.37
2019-05-05T07:57:34.910Z,9.73
2019-05-05T08:00:07.900Z,9.50
2019-05-05T08:02:43.878Z,10.00
2019-05-05T08:05:16.437Z,8.90
2019-05-05T08:07:47.518Z,9.10
2019-05-05T08:10:17.636Z,10.23
2019-05-05T08:12:50.583Z,10.47
2019-05-05T08:15:23.829Z,8.97
2019-05-05T08:18:13.903Z,9.57
2019-05-05T08:20:44.985Z,10.20
2019-05-05T08:23:29.017Z,10.40
2019-05-05T08:25:54.111Z,9.37
2019-05-05T08:28:28.290Z,9.80
2019-05-05T08:31:06.519Z,8.57
2019-05-05T08:33:37.808Z,9.67
2019-05-05T08:36:08.826Z,9.10
2019-05-05T08:38:39.201Z,9.30
2019-05-05T08:41:10.102Z,8.20
2019-05-05T08:43:41.027Z,9.07
2019-05-05T08:46:14.377Z,9.08
2019-05-05T08:48:47.632Z,8.23
2019-05-05T08:51:18.485Z,8.13
2019-05-05T08:53:48.612Z,8.67
2019-05-05T08:56:19.686Z,8.00
2019-05-05T08:58:54.457Z,7.95
2019-05-05T09:01:24.491Z,8.33
2019-05-05T09:03:55.720Z,6.63
2019-05-05T09:06:27.785Z,8.10
2019-05-05T09:09:00.397Z,8.13
2019-05-05T09:11:31.591Z,8.87
2019-05-05T09:14:04.173Z,8.13
2019-05-05T09:16:35.335Z,8.17
2019-05-05T09:19:11.593Z,6.97
2019-05-05T09:21:41.595Z,7.80
2019-05-05T09:24:29.002Z,7.57
2019-05-05T09:27:15.753Z,6.13
2019-05-05T09:29:47.781Z,6.93
2019-05-05T09:32:17.687Z,7.27
2019-05-05T09:34:50.275Z,5.83
2019-05-05T09:37:24.670Z,6.05
2019-05-05T09:39:54.941Z,8.33
2019-05-05T09:42:25.989Z,6.30
2019-05-05T09:44:57.478Z,6.25
2019-05-05T09:47:27.362Z,6.07
2019-05-05T09:49:59.075Z,5.93
2019-05-05T09:52:30.149Z,6.83
2019-05-05T09:55:03.822Z,9.37
2019-05-05T09:57:37.146Z,5.40
2019-05-05T10:00:09.849Z,4.57
2019-05-05T10:02:41.164Z,4.70
2019-05-05T10:05:14.259Z,4.70
2019-05-05T10:07:44.166Z,5.23
2019-05-05T10:13:04.699Z,4.80
2019-05-05T10:15:34.570Z,6.97
2019-05-05T10:18:07.753Z,6.87
2019-05-05T10:20:38.807Z,5.20
2019-05-05T10:23:10.022Z,5.30
2019-05-05T10:25:44.672Z,3.77
2019-05-05T10:28:16.881Z,3.80
2019-05-05T10:30:48.085Z,3.30
2019-05-05T10:33:19.304Z,3.77
2019-05-05T10:35:50.688Z,4.10
2019-05-05T10:38:20.697Z,3.70
2019-05-05T10:40:53.981Z,3.47
2019-05-05T10:43:26.947Z,4.05
2019-05-05T10:45:58.083Z,3.63
2019-05-05T10:48:27.872Z,3.77
2019-05-05T10:51:00.330Z,4.07
2019-05-05T10:53:32.640Z,4.53
2019-05-05T10:56:04.501Z,3.83
2019-05-05T10:58:37.939Z,4.00
2019-05-05T11:01:10.866Z,5.60
2019-05-05T11:03:44.652Z,3.80
2019-05-05T11:06:14.512Z,4.30
2019-05-05T11:08:45.736Z,3.47
2019-05-05T11:11:16.700Z,3.60
2019-05-05T11:13:48.583Z,4.00
2019-05-05T11:16:20.847Z,3.50
2019-05-05T11:18:50.804Z,3.42
2019-05-05T11:21:23.981Z,3.90
2019-05-05T11:23:55.213Z,3.60
2019-05-05T11:26:25.169Z,3.50
2019-05-05T11:28:55.005Z,3.40
2019-05-05T11:31:26.283Z,4.20
2019-05-05T11:33:58.760Z,3.17
2019-05-05T11:36:30.182Z,3.07
2019-05-05T11:39:04.047Z,2.73
2019-05-05T11:41:35.126Z,2.80
2019-05-05T11:44:04.419Z,3.03
2019-05-05T11:46:35.922Z,2.70
2019-05-05T11:49:06.405Z,3.00
2019-05-05T11:51:38.888Z,3.00
2019-05-05T11:54:08.818Z,3.00
2019-05-05T11:56:40.707Z,3.00
2019-05-05T11:59:14.397Z,2.73
2019-05-05T12:01:44.505Z,2.80
2019-05-05T12:04:15.828Z,2.62
2019-05-05T12:06:46.785Z,3.00
2019-05-05T12:09:18.393Z,2.35
2019-05-05T12:11:50.063Z,2.77
2019-05-05T12:14:24.428Z,2.43
2019-05-05T12:16:56.322Z,9.50
2019-05-05T12:19:27.409Z,2.50
2019-05-05T12:21:58.762Z,2.30
2019-05-05T12:24:33.751Z,2.60
2019-05-05T12:27:06.049Z,2.60
2019-05-05T12:29:38.322Z,2.47
2019-05-05T12:32:12.260Z,2.67
2019-05-05T12:34:42.046Z,2.13
2019-05-05T12:37:11.359Z,2.10
2019-05-05T12:39:44.245Z,1.97
2019-05-05T12:42:15.223Z,2.50
2019-05-05T12:44:49.871Z,4.53
2019-05-05T12:47:28.779Z,2.23
2019-05-05T12:50:00.279Z,2.10
2019-05-05T12:52:33.588Z,1.83
2019-05-05T12:55:06.094Z,7.27
2019-05-05T12:57:35.331Z,2.23
2019-05-05T13:00:08.834Z,2.47
2019-05-05T13:02:41.239Z,2.07
2019-05-05T13:05:14.505Z,2.40
2019-05-05T13:07:45.715Z,2.23
2019-05-05T13:10:21.745Z,2.07
2019-05-05T13:12:54.347Z,2.50
2019-05-05T13:15:27.565Z,2.43
2019-05-05T13:18:01.230Z,2.10
2019-05-05T13:20:36.099Z,2.53
2019-05-05T13:23:17.396Z,2.30
2019-05-05T13:26:09.528Z,2.10
2019-05-05T13:28:41.250Z,2.23
2019-05-05T13:31:13.976Z,2.03
2019-05-05T13:33:45.358Z,2.23
2019-05-05T13:36:17.335Z,2.58
2019-05-05T13:38:48.548Z,2.17
2019-05-05T13:41:21.811Z,2.77
2019-05-05T13:43:53.859Z,5.70
2019-05-05T13:49:25.136Z,7.67
2019-05-05T13:51:57.794Z,16.17
2019-05-05T13:54:29.362Z,14.70
2019-05-05T13:57:00.381Z,4.57
2019-05-05T13:59:34.064Z,2.43
2019-05-05T14:02:10.881Z,1.64
2019-05-05T14:04:43.825Z,2.10
2019-05-05T14:07:13.876Z,5.80
2019-05-05T14:09:45.107Z,2.10
2019-05-05T14:12:15.057Z,2.50
2019-05-05T14:14:45.023Z,3.03
2019-05-05T14:17:17.495Z,3.50
2019-05-05T14:20:01.482Z,3.13
2019-05-05T14:22:24.230Z,3.30
2019-05-05T14:24:55.895Z,2.63
2019-05-05T14:27:27.218Z,2.53
2019-05-05T14:30:08.978Z,2.93
2019-05-05T14:32:43.737Z,2.70
2019-05-05T14:35:25.149Z,3.30
2019-05-05T14:37:58.470Z,2.40
2019-05-05T14:40:29.776Z,3.10
2019-05-05T14:42:59.908Z,3.83
2019-05-05T14:45:33.882Z,2.40
2019-05-05T14:48:05.632Z,3.33
2019-05-05T14:50:36.783Z,3.07
2019-05-05T14:53:08.216Z,2.37
2019-05-05T14:55:38.241Z,3.20
2019-05-05T14:58:14.319Z,3.17
2019-05-05T15:00:45.380Z,2.40
2019-05-05T15:03:17.839Z,2.30
2019-05-05T15:06:03.881Z,2.13
2019-05-05T15:08:47.852Z,3.57
2019-05-05T15:11:23.857Z,2.47
2019-05-05T15:13:57.002Z,2.30
2019-05-05T15:16:30.133Z,1.90
2019-05-05T15:19:03.908Z,3.30
2019-05-05T15:21:36.200Z,2.00
2019-05-05T15:24:07.870Z,2.47
2019-05-05T15:26:51.192Z,2.40
2019-05-05T15:29:16.099Z,2.50
2019-05-05T15:31:46.791Z,2.37
2019-05-05T15:34:20.829Z,1.98
2019-05-05T15:39:44.106Z,2.30
2019-05-05T15:42:16.263Z,2.58
2019-05-05T15:44:51.490Z,2.83
2019-05-05T15:47:23.641Z,2.30
2019-05-05T15:52:44.109Z,2.40
2019-05-05T15:55:19.169Z,3.10
2019-05-05T15:57:50.247Z,2.03
2019-05-05T16:00:22.834Z,2.33
2019-05-05T16:02:56.177Z,2.60
2019-05-05T16:05:26.322Z,2.90
2019-05-05T16:07:58.001Z,2.67
2019-05-05T16:10:34.589Z,2.83
2019-05-05T16:13:13.696Z,2.67
2019-05-05T16:15:45.173Z,2.83
2019-05-05T16:18:36.005Z,2.42
2019-05-05T16:21:14.113Z,2.57
2019-05-05T16:23:47.409Z,2.67
2019-05-05T16:26:20.040Z,2.87
2019-05-05T16:28:55.051Z,3.20
2019-05-05T16:31:27.586Z,3.67
2019-05-05T16:33:59.545Z,2.30
2019-05-05T16:36:33.566Z,3.13
2019-05-05T16:39:02.932Z,2.77
2019-05-05T16:41:34.047Z,2.57
2019-05-05T16:44:05.997Z,3.20
2019-05-05T16:46:38.450Z,2.85
2019-05-05T16:49:15.539Z,3.00
2019-05-05T16:51:49.868Z,3.20
2019-05-05T16:54:26.752Z,2.93
2019-05-05T16:56:57.641Z,5.57
2019-05-05T16:59:28.543Z,5.53
2019-05-05T17:01:59.692Z,6.37
2019-05-05T17:04:30.844Z,4.37
2019-05-05T17:07:03.956Z,6.07
2019-05-05T17:09:35.510Z,20.20
2019-05-05T17:12:14.147Z,5.40
2019-05-05T17:15:04.501Z,4.53
2019-05-05T17:17:49.712Z,5.00
2019-05-05T17:20:24.466Z,9.13
2019-05-05T17:22:55.582Z,5.80
2019-05-05T17:25:28.223Z,4.87
2019-05-05T17:28:00.686Z,5.20
2019-05-05T17:30:34.672Z,5.20
2019-05-05T17:33:10.714Z,4.63
2019-05-05T17:35:40.836Z,5.80
2019-05-05T17:38:13.809Z,5.57
2019-05-05T17:40:47.496Z,6.00
2019-05-05T17:43:25.150Z,6.37
2019-05-05T17:45:56.795Z,6.20
2019-05-05T17:48:32.642Z,4.97
2019-05-05T17:51:13.760Z,5.23
2019-05-05T17:53:49.312Z,6.37
2019-05-05T17:56:23.555Z,6.37
2019-05-05T17:58:54.645Z,5.00
2019-05-05T18:01:25.848Z,4.60
2019-05-05T18:03:56.755Z,4.60
2019-05-05T18:06:38.571Z,5.13
2019-05-05T18:09:13.990Z,4.13
2019-05-05T18:11:46.655Z,4.00
2019-05-05T18:14:25.352Z,4.13
2019-05-05T18:16:56.648Z,4.03
2019-05-05T18:19:27.870Z,4.47
2019-05-05T18:21:58.814Z,4.63
2019-05-05T18:24:29.707Z,4.43
2019-05-05T18:27:01.236Z,4.20
2019-05-05T18:29:34.351Z,4.40
2019-05-05T18:34:55.361Z,4.10
2019-05-05T18:37:26.407Z,4.10
2019-05-05T18:39:58.671Z,4.50
2019-05-05T18:42:27.883Z,4.80
2019-05-05T18:44:59.389Z,4.77
2019-05-05T18:47:30.447Z,4.77
2019-05-05T18:49:59.774Z,5.03
2019-05-05T18:52:30.830Z,5.30
2019-05-05T18:55:01.804Z,5.13
2019-05-05T18:57:34.126Z,5.87
2019-05-05T19:00:05.331Z,6.00
2019-05-05T19:02:54.019Z,6.33
2019-05-05T19:05:41.573Z,5.71
2019-05-05T19:08:24.484Z,6.13
2019-05-05T19:10:55.579Z,6.23
2019-05-05T19:13:26.444Z,5.47
2019-05-05T19:15:57.532Z,5.90
2019-05-05T19:18:28.565Z,5.40
2019-05-05T19:21:03.606Z,5.90
2019-05-05T19:23:35.616Z,4.53
2019-05-05T19:26:07.862Z,4.80
2019-05-05T19:28:43.897Z,4.90
2019-05-05T19:31:10.347Z,5.13
2019-05-05T19:33:41.248Z,4.73
2019-05-05T19:36:12.370Z,4.40
2019-05-05T19:38:44.178Z,4.40
2019-05-05T19:41:14.470Z,4.30
2019-05-05T19:43:56.740Z,4.87
2019-05-05T19:46:28.143Z,4.30
2019-05-05T19:49:16.961Z,4.27
2019-05-05T19:51:48.572Z,4.17
2019-05-05T19:54:18.460Z,4.30
2019-05-05T19:56:54.065Z,4.40
2019-05-05T19:59:24.612Z,4.57
2019-05-05T20:01:55.476Z,4.23
2019-05-05T20:04:26.411Z,4.23
2019-05-05T20:06:56.276Z,4.33
2019-05-05T20:09:28.611Z,3.77
2019-05-05T20:11:59.579Z,4.00
2019-05-05T20:14:29.439Z,4.27
2019-05-05T20:17:19.345Z,3.92
2019-05-05T20:19:50.398Z,3.90
2019-05-05T20:25:10.657Z,3.93
2019-05-05T20:27:41.879Z,4.40
2019-05-05T20:30:14.279Z,4.10
2019-05-05T20:32:45.763Z,4.20
2019-05-05T20:35:17.284Z,4.57
2019-05-05T20:37:54.161Z,3.83
2019-05-05T20:43:17.315Z,3.90
2019-05-05T20:45:48.434Z,4.20
2019-05-05T20:51:09.269Z,3.93
2019-05-05T20:56:30.209Z,4.70
2019-05-05T20:59:02.449Z,4.20
2019-05-05T21:01:34.110Z,5.43
2019-05-05T21:04:04.766Z,4.73
2019-05-05T21:06:35.839Z,4.97
2019-05-05T21:09:10.579Z,5.10
2019-05-05T21:11:43.788Z,5.27
2019-05-05T21:14:14.954Z,5.83
2019-05-05T21:16:45.787Z,5.20
2019-05-05T21:19:16.614Z,5.60
2019-05-05T21:21:48.236Z,5.60
2019-05-05T21:24:19.073Z,5.97
2019-05-05T21:26:56.416Z,6.10
2019-05-05T21:29:38.556Z,6.50
2019-05-05T21:32:01.110Z,7.43
2019-05-05T21:34:34.128Z,6.90
2019-05-05T21:37:05.946Z,7.50
2019-05-05T21:39:38.316Z,8.00
2019-05-05T21:42:08.366Z,8.43
2019-05-05T21:44:39.500Z,8.77
2019-05-05T21:47:14.169Z,9.10
2019-05-05T21:49:46.630Z,9.37
2019-05-05T21:52:26.886Z,10.55
2019-05-05T21:54:59.324Z,10.60
2019-05-05T21:57:45.057Z,11.80
2019-05-05T22:00:16.874Z,10.47
2019-05-05T22:02:46.761Z,10.57
2019-05-05T22:05:17.624Z,11.43
2019-05-05T22:07:49.292Z,8.67
2019-05-05T22:10:20.443Z,9.43
2019-05-05T22:12:51.620Z,10.67
2019-05-05T22:15:22.719Z,12.10
2019-05-05T22:17:55.976Z,9.53
2019-05-05T22:20:30.199Z,9.43
2019-05-05T22:23:01.173Z,9.07
2019-05-05T22:25:34.075Z,9.30
2019-05-05T22:28:05.773Z,8.87
2019-05-05T22:30:37.244Z,39.33
2019-05-05T22:33:10.411Z,18.17
2019-05-05T22:35:44.230Z,12.93
2019-05-05T22:38:15.212Z,10.33
2019-05-05T22:40:47.455Z,28.13
2019-05-05T22:43:17.409Z,9.60
2019-05-05T22:45:46.682Z,7.77
2019-05-05T22:48:17.597Z,10.77
2019-05-05T22:50:49.962Z,9.40
2019-05-05T22:53:21.032Z,4.90
2019-05-05T22:55:50.925Z,4.73
2019-05-05T22:58:24.045Z,4.17
2019-05-05T23:00:59.270Z,8.80
2019-05-05T23:03:30.605Z,5.40
2019-05-05T23:06:04.320Z,6.13
2019-05-05T23:08:35.586Z,11.90
2019-05-05T23:11:08.643Z,9.00
2019-05-05T23:13:44.366Z,5.67
2019-05-05T23:16:26.457Z,3.87
2019-05-05T23:18:57.727Z,11.63
2019-05-05T23:21:34.295Z,8.93
2019-05-05T23:24:17.591Z,4.73
2019-05-05T23:26:48.968Z,4.37
2019-05-05T23:29:21.109Z,5.30
2019-05-05T23:31:55.368Z,5.17
2019-05-05T23:34:26.534Z,32.93
2019-05-05T23:36:57.506Z,6.30
2019-05-05T23:39:27.361Z,4.03
2019-05-05T23:41:58.423Z,3.60
2019-05-05T23:44:28.220Z,5.80
2019-05-05T23:46:59.101Z,6.10
2019-05-05T23:52:19.340Z,5.70
2019-05-05T23:54:50.408Z,6.40
2019-05-05T23:57:21.626Z,6.10
2019-05-05T23:59:53.314Z,7.27
